Time;durP1;ratioP1;P1;durP2;ratioP2;P2;SDS_P1;SDS_P2;PMS_P1;PMS_P2;Temp;Humidity;BMP_temperature;BMP_pressure;BME280_temperature;BME280_humidity;BME280_pressure;Samples;Min_cycle;Max_cycle;Signal;HPM_P1;HPM_P2
2022/12/05 00:01:59;;;;;;;98.13;43.27;;;3.20;99.90;;;-141.84;91.37;18448.34;4992354;28;20233;-63
2022/12/05 00:04:28;;;;;;;87.33;41.57;;;3.20;99.90;;;-141.84;91.35;18440.22;4992524;28;20237;-63
2022/12/05 00:06:56;;;;;;;90.13;42.73;;;3.20;99.90;;;-141.84;91.35;18428.03;4992498;28;20207;-63
2022/12/05 00:09:24;;;;;;;88.10;40.83;;;3.20;99.90;;;-141.84;91.23;18440.22;4992855;28;20206;-63
2022/12/05 00:11:52;;;;;;;83.37;41.00;;;3.30;99.90;;;-141.84;90.95;18436.16;4992272;28;20247;-63
2022/12/05 00:14:21;;;;;;;79.40;39.37;;;3.30;99.90;;;-141.84;90.87;18468.66;4991842;28;20238;-63
2022/12/05 00:16:50;;;;;;;83.67;40.13;;;3.30;99.90;;;-141.84;90.41;18436.16;4997075;28;20233;-63
2022/12/05 00:19:18;;;;;;;80.73;39.63;;;3.30;99.90;;;-141.84;90.63;18425.97;5011643;28;20232;-63
2022/12/05 00:21:47;;;;;;;74.90;37.87;;;3.30;99.90;;;-141.84;90.90;18464.59;5011884;28;20202;-63
2022/12/05 00:24:16;;;;;;;80.07;39.50;;;3.20;99.90;;;-141.84;91.10;18452.41;5011112;28;20232;-63
2022/12/05 00:26:44;;;;;;;77.47;38.23;;;3.30;99.90;;;-141.84;91.27;18452.41;5011298;28;20324;-63
2022/12/05 00:29:13;;;;;;;80.67;38.57;;;3.20;99.90;;;-141.84;91.44;18454.44;5007592;28;20640;-63
2022/12/05 00:31:41;;;;;;;81.53;38.97;;;3.30;99.90;;;-141.84;91.13;18417.84;5011622;28;20226;-63
2022/12/05 00:34:11;;;;;;;76.07;39.40;;;3.30;99.90;;;-141.84;91.00;18454.44;5011647;28;20209;-62
2022/12/05 00:36:40;;;;;;;80.93;38.43;;;3.30;99.90;;;-141.84;91.38;18480.84;5011554;28;20709;-63
2022/12/05 00:39:13;;;;;;;87.33;39.90;;;3.20;99.90;;;-141.84;91.14;18436.16;5011075;28;20222;-63
2022/12/05 00:41:43;;;;;;;84.50;41.17;;;3.30;99.90;;;-141.84;91.18;18448.34;5011410;28;20238;-66
2022/12/05 00:44:12;;;;;;;81.47;40.40;;;3.30;99.90;;;-141.84;90.90;18409.72;4997445;28;20710;-65
2022/12/05 00:46:41;;;;;;;74.40;38.77;;;3.40;99.90;;;-141.84;91.15;18436.16;4991561;28;20293;-63
2022/12/05 00:49:11;;;;;;;80.17;39.33;;;3.30;99.90;;;-141.84;91.26;18438.19;4991174;28;20227;-65
2022/12/05 00:51:42;;;;;;;83.27;40.17;;;3.30;99.90;;;-141.84;91.03;18450.38;4991688;28;20667;-64
2022/12/05 00:54:15;;;;;;;84.43;37.73;;;3.30;99.90;;;-141.84;91.33;18428.03;5004536;28;20231;-63
2022/12/05 00:56:44;;;;;;;79.03;39.57;;;3.30;99.90;;;-141.84;91.55;18434.13;4991570;28;20237;-63
2022/12/05 00:59:16;;;;;;;83.83;40.53;;;3.30;99.90;;;-141.84;91.73;18421.91;4991309;28;20604;-63
2022/12/05 01:01:47;;;;;;;88.13;40.87;;;3.30;99.90;;;-141.84;91.73;18448.34;4991486;28;20246;-63
2022/12/05 01:04:20;;;;;;;84.40;41.40;;;3.30;99.90;;;-141.84;91.58;18395.50;4991759;28;20239;-62
2022/12/05 01:06:50;;;;;;;89.93;42.30;;;3.30;99.90;;;-141.84;91.97;18440.22;4992092;28;20233;-63
2022/12/05 01:09:20;;;;;;;88.60;41.43;;;3.30;99.90;;;-141.84;91.98;18377.22;4991186;28;20285;-62
2022/12/05 01:11:51;;;;;;;88.97;41.60;;;3.30;99.90;;;-141.84;92.54;18403.63;4991442;28;20236;-63
2022/12/05 01:14:23;;;;;;;94.70;42.40;;;3.30;99.90;;;-141.84;92.42;18415.81;4990572;28;20236;-63
2022/12/05 01:16:54;;;;;;;85.43;40.70;;;3.20;99.90;;;-141.84;92.63;18415.81;4997096;28;20221;-61
2022/12/05 01:19:27;;;;;;;89.20;39.43;;;3.30;99.90;;;-141.84;92.73;18407.69;5011066;28;20236;-63
2022/12/05 01:21:56;;;;;;;83.50;40.20;;;3.30;99.90;;;-141.84;92.84;18432.09;5011700;28;20189;-64
2022/12/05 01:24:27;;;;;;;88.03;41.47;;;3.30;99.90;;;-141.84;92.69;18405.66;5005255;28;20264;-64
2022/12/05 01:26:55;;;;;;;90.97;42.60;;;3.30;99.90;;;-141.84;92.50;18417.84;5007460;28;20281;-62
2022/12/05 01:29:25;;;;;;;93.77;43.33;;;3.30;99.90;;;-141.84;92.43;18425.97;5010734;28;20241;-62
2022/12/05 01:31:54;;;;;;;90.50;42.17;;;3.40;99.90;;;-141.84;92.58;18405.66;5011204;28;20300;-63
2022/12/05 01:34:24;;;;;;;85.57;42.23;;;3.30;99.90;;;-141.84;91.96;18440.22;5011260;28;20295;-64
2022/12/05 01:36:52;;;;;;;87.90;40.97;;;3.40;99.90;;;-141.84;91.70;18430.06;5011584;28;20259;-63
2022/12/05 01:39:20;;;;;;;87.97;41.07;;;3.40;99.90;;;-141.84;91.76;18440.22;5010646;28;20255;-62
2022/12/05 01:41:50;;;;;;;89.47;41.33;;;3.40;99.90;;;-141.84;91.89;18407.69;5010932;28;20618;-64
2022/12/05 01:45:00;;;;;;;86.97;40.33;;;3.40;99.90;;;-141.84;92.12;18399.56;4996170;28;20235;-62
2022/12/05 01:47:32;;;;;;;82.37;39.47;;;3.40;99.90;;;-141.84;92.05;18440.22;4990806;28;20234;-62
2022/12/05 01:50:03;;;;;;;82.23;38.20;;;3.40;99.90;;;-141.84;92.07;18430.06;4990956;28;20235;-63
2022/12/05 01:52:34;;;;;;;82.20;38.30;;;3.40;99.90;;;-141.84;92.37;18436.16;4995651;28;20232;-62
2022/12/05 01:55:11;;;;;;;83.83;39.67;;;3.40;99.90;;;-141.84;92.56;18432.09;4998382;28;20198;-62
2022/12/05 01:57:41;;;;;;;80.27;39.27;;;3.40;99.90;;;-141.84;92.50;18405.66;4991185;28;20219;-62
2022/12/05 02:00:14;;;;;;;84.13;40.67;;;3.40;99.90;;;-141.84;92.68;18395.50;4990939;28;20281;-63
2022/12/05 02:02:51;;;;;;;85.73;39.67;;;3.40;99.90;;;-141.84;92.51;18401.59;4990824;28;20231;-63
2022/12/05 02:05:27;;;;;;;82.27;38.03;;;3.40;99.90;;;-141.84;92.58;18415.81;4990862;28;20254;-62
2022/12/05 02:07:57;;;;;;;81.13;39.80;;;3.40;99.90;;;-141.84;92.60;18425.97;4990861;28;20231;-63
2022/12/05 02:10:28;;;;;;;86.30;41.33;;;3.30;99.90;;;-141.84;92.94;18399.56;4991113;28;20292;-62
2022/12/05 02:13:13;;;;;;;86.57;40.00;;;3.40;99.90;;;-141.84;92.88;18415.81;4987424;28;20581;-63
2022/12/05 02:15:50;;;;;;;74.47;37.07;;;3.40;99.90;;;-141.84;93.09;18415.81;4991471;28;20191;-62
2022/12/05 02:18:41;;;;;;;83.20;40.27;;;3.40;99.90;;;-141.84;93.05;18365.03;5008854;28;20231;-63
2022/12/05 02:21:54;;;;;;;83.37;38.67;;;3.40;99.90;;;-141.84;93.12;18401.59;5010289;28;20230;-62
2022/12/05 02:24:55;;;;;;;70.33;37.13;;;3.40;99.90;;;-141.84;93.42;18399.56;5011190;28;20259;-62
2022/12/05 02:27:51;;;;;;;71.97;36.20;;;3.40;99.90;;;-141.84;93.10;18409.72;5014087;28;20605;-63
2022/12/05 02:30:22;;;;;;;74.13;37.77;;;3.40;99.90;;;-141.84;93.11;18409.72;5013629;28;20308;-63
2022/12/05 02:33:15;;;;;;;81.57;39.37;;;3.40;99.90;;;-141.84;93.28;18371.13;5013738;28;20287;-61
2022/12/05 02:35:57;;;;;;;69.27;36.97;;;3.40;99.90;;;-141.84;93.54;18375.19;5013847;28;20230;-63
2022/12/05 02:38:33;;;;;;;72.07;36.47;;;3.40;99.90;;;-141.84;93.86;18391.44;5013369;28;20237;-63
2022/12/05 02:41:14;;;;;;;68.57;35.93;;;3.30;99.90;;;-141.84;93.80;18397.53;5013682;28;20236;-63
2022/12/05 02:43:52;;;;;;;79.50;37.30;;;3.30;99.90;;;-141.84;94.00;18379.25;5007047;28;20242;-64
2022/12/05 02:46:26;;;;;;;70.60;36.43;;;3.30;99.90;;;-141.84;93.94;18367.06;4994041;28;20238;-62
2022/12/05 02:49:00;;;;;;;70.57;36.27;;;3.30;99.90;;;-141.84;94.24;18405.66;4994104;28;20268;-63
2022/12/05 02:51:35;;;;;;;73.13;37.03;;;3.30;99.90;;;-141.84;94.29;18389.41;4994072;28;20210;-64
2022/12/05 02:54:10;;;;;;;67.97;35.87;;;3.40;99.90;;;-141.84;94.19;18379.25;5010445;28;20233;-63
2022/12/05 02:56:42;;;;;;;67.80;35.97;;;3.40;99.90;;;-141.84;94.14;18401.59;4999706;28;20277;-62
2022/12/05 02:59:10;;;;;;;70.20;37.30;;;3.40;99.90;;;-141.84;94.19;18407.69;4993488;28;20284;-63
2022/12/05 03:01:40;;;;;;;72.43;35.27;;;3.40;99.90;;;-141.84;94.18;18401.59;4993310;28;20238;-63
2022/12/05 03:04:13;;;;;;;74.47;36.27;;;3.40;99.90;;;-141.84;94.31;18407.69;4993801;28;20211;-63
2022/12/05 03:06:46;;;;;;;62.87;33.83;;;3.40;99.90;;;-141.84;94.29;18379.25;4994504;28;20195;-63
2022/12/05 03:09:22;;;;;;;65.07;35.33;;;3.40;99.90;;;-141.84;94.46;18367.06;4993174;28;20278;-62
2022/12/05 03:11:56;;;;;;;71.80;36.00;;;3.40;99.90;;;-141.84;94.47;18377.22;4993531;28;20776;-63
2022/12/05 03:14:33;;;;;;;67.40;35.13;;;3.40;99.90;;;-141.84;94.46;18375.19;4993156;28;20698;-64
2022/12/05 03:17:10;;;;;;;65.27;34.77;;;3.40;99.90;;;-141.84;94.56;18371.13;4993730;28;20222;-63
2022/12/05 03:19:49;;;;;;;71.50;35.40;;;3.40;99.90;;;-141.84;94.65;18371.13;4999075;28;20232;-62
2022/12/05 03:22:29;;;;;;;63.60;34.40;;;3.40;99.90;;;-141.84;94.54;18379.25;5013005;28;20621;-63
2022/12/05 03:24:58;;;;;;;64.00;34.87;;;3.40;99.90;;;-141.84;94.55;18371.13;5012680;28;20843;-63
2022/12/05 03:27:37;;;;;;;66.53;34.70;;;3.40;99.90;;;-141.84;94.77;18407.69;5012978;28;20618;-63
2022/12/05 03:30:10;;;;;;;66.80;35.40;;;3.40;99.90;;;-141.84;94.54;18363.00;5012375;28;20234;-63
2022/12/05 03:32:48;;;;;;;65.80;35.33;;;3.40;99.90;;;-141.84;94.58;18358.94;5013048;28;20226;-63
2022/12/05 03:35:25;;;;;;;66.03;35.60;;;3.50;99.90;;;-141.84;94.56;18365.03;5012685;28;20618;-64
2022/12/05 03:38:01;;;;;;;59.23;32.03;;;3.50;99.90;;;-141.84;94.58;18387.38;5011968;28;20248;-64
2022/12/05 03:40:41;;;;;;;57.70;33.00;;;3.40;99.90;;;-141.84;94.67;18377.22;5012698;28;20232;-64
2022/12/05 03:43:14;;;;;;;55.33;31.63;;;3.40;99.90;;;-141.84;94.70;18350.81;5007782;28;20207;-62
2022/12/05 03:45:48;;;;;;;61.27;32.90;;;3.40;99.90;;;-141.84;94.73;18379.25;4993325;28;20201;-63
2022/12/05 03:48:30;;;;;;;59.57;33.60;;;3.40;99.90;;;-141.84;94.88;18367.06;5011792;28;20931;-64
2022/12/05 03:51:01;;;;;;;55.03;30.53;;;3.50;99.90;;;-141.84;94.92;18346.75;5003259;28;20231;-63
2022/12/05 03:53:37;;;;;;;65.70;34.00;;;3.40;99.90;;;-141.84;95.13;18367.06;5005259;28;20787;-63
2022/12/05 03:56:10;;;;;;;55.53;31.57;;;3.50;99.90;;;-141.84;95.25;18371.13;4973186;28;20358;-62
2022/12/05 03:58:45;;;;;;;66.17;35.90;;;3.50;99.90;;;-141.84;95.23;18377.22;4981582;28;20289;-62
2022/12/05 04:01:17;;;;;;;55.13;31.40;;;3.50;99.90;;;-141.84;95.40;18393.47;4992141;28;20199;-62
2022/12/05 04:03:53;;;;;;;62.33;34.13;;;3.50;99.90;;;-141.84;95.38;18352.84;4992878;28;20187;-62
2022/12/05 04:06:28;;;;;;;61.83;34.43;;;3.50;99.90;;;-141.84;95.24;18358.94;4992078;28;20227;-63
2022/12/05 04:09:01;;;;;;;57.37;32.23;;;3.50;99.90;;;-141.84;95.10;18352.84;4992020;28;20236;-64
2022/12/05 04:11:34;;;;;;;65.47;34.53;;;3.50;99.90;;;-141.84;95.08;18381.28;4992075;28;20305;-63
2022/12/05 04:14:11;;;;;;;61.07;34.70;;;3.50;99.90;;;-141.84;95.06;18360.97;4990304;28;20235;-63
2022/12/05 04:17:04;;;;;;;58.07;33.03;;;3.60;99.90;;;-141.84;95.01;18352.84;4996047;28;20221;-62
2022/12/05 04:22:28;;;;;;;54.33;31.33;;;3.50;99.90;;;-141.84;95.01;18358.94;5011756;28;20245;-63
2022/12/05 04:27:58;;;;;;;59.03;32.53;;;3.50;99.90;;;-141.84;95.33;18360.97;5011821;28;20915;-62
2022/12/05 04:30:35;;;;;;;57.10;34.50;;;3.50;99.90;;;-141.84;95.35;18356.91;5011778;28;20206;-63
2022/12/05 04:33:12;;;;;;;56.90;32.83;;;3.50;99.90;;;-141.84;95.43;18373.16;5011501;28;20564;-62
2022/12/05 04:35:50;;;;;;;62.57;34.13;;;3.60;99.90;;;-141.84;95.52;18356.91;5002927;28;20227;-64
2022/12/05 04:38:25;;;;;;;63.03;35.03;;;3.60;99.90;;;-141.84;95.28;18352.84;4991262;28;20241;-63
2022/12/05 04:41:00;;;;;;;62.50;33.17;;;3.60;99.90;;;-141.84;95.41;18350.81;4991438;28;20286;-62
2022/12/05 04:43:34;;;;;;;63.13;33.37;;;3.60;99.90;;;-141.84;95.29;18342.69;4991131;28;20233;-63
2022/12/05 04:46:07;;;;;;;58.03;32.90;;;3.60;99.90;;;-141.84;95.22;18358.94;4991556;28;20186;-63
2022/12/05 04:48:41;;;;;;;58.57;34.10;;;3.60;99.90;;;-141.84;95.32;18338.63;4991788;28;20231;-64
2022/12/05 04:51:17;;;;;;;55.17;32.33;;;3.60;99.90;;;-141.84;95.55;18391.44;4980618;28;20227;-64
2022/12/05 04:53:50;;;;;;;56.10;31.67;;;3.60;99.90;;;-141.84;95.51;18356.91;4973428;28;20227;-64
2022/12/05 04:56:22;;;;;;;58.57;31.80;;;3.60;99.90;;;-141.84;95.63;18326.44;4971852;28;20236;-62
2022/12/05 04:58:50;;;;;;;53.70;31.93;;;3.60;99.90;;;-141.84;95.76;18324.41;4972011;28;20719;-63
2022/12/05 05:01:25;;;;;;;62.57;34.03;;;3.60;99.90;;;-141.84;95.69;18395.50;4971915;28;20243;-64
2022/12/05 05:04:01;;;;;;;60.70;32.83;;;3.60;99.90;;;-141.84;95.78;18350.81;4972912;28;20254;-63
2022/12/05 05:06:31;;;;;;;59.53;33.23;;;3.60;99.90;;;-141.84;95.79;18318.31;4991470;28;20217;-63
2022/12/05 05:08:59;;;;;;;58.03;33.53;;;3.60;99.90;;;-141.84;95.80;18328.47;4993178;28;20246;-64
2022/12/05 05:11:30;;;;;;;56.03;32.73;;;3.60;99.90;;;-141.84;95.75;18344.72;5011150;28;20237;-64
2022/12/05 05:13:59;;;;;;;61.73;33.67;;;3.60;99.90;;;-141.84;95.46;18334.56;5010233;28;20246;-63
2022/12/05 05:16:35;;;;;;;61.87;34.07;;;3.70;99.90;;;-141.84;95.33;18342.69;5008570;28;20780;-62
2022/12/05 05:19:05;;;;;;;57.47;33.43;;;3.70;99.90;;;-141.84;95.25;18377.22;5010325;28;20202;-63
2022/12/05 05:21:37;;;;;;;47.77;30.00;;;3.60;99.90;;;-141.84;95.18;18379.25;5011100;28;20198;-62
2022/12/05 05:24:08;;;;;;;53.77;30.57;;;3.60;99.90;;;-141.84;95.19;18354.88;5010687;28;20237;-62
2022/12/05 05:26:39;;;;;;;59.77;33.50;;;3.60;99.90;;;-141.84;95.15;18342.69;5010653;28;20233;-63
2022/12/05 05:29:09;;;;;;;56.93;31.30;;;3.60;99.90;;;-141.84;95.22;18342.69;5010648;28;20336;-64
2022/12/05 05:31:39;;;;;;;61.70;33.57;;;3.60;99.90;;;-141.84;95.17;18330.50;5010575;28;20504;-62
2022/12/05 05:34:09;;;;;;;59.60;34.97;;;3.50;99.90;;;-141.84;95.27;18338.63;5010928;28;20191;-62
2022/12/05 05:36:39;;;;;;;61.20;34.20;;;3.50;99.90;;;-141.84;95.16;18314.25;5010760;28;20804;-63
2022/12/05 05:39:13;;;;;;;61.30;33.90;;;3.50;99.90;;;-141.84;95.20;18342.69;5010197;28;20728;-63
2022/12/05 05:41:42;;;;;;;55.37;32.63;;;3.50;99.90;;;-141.84;95.29;18342.69;5010040;28;20232;-63
2022/12/05 05:44:11;;;;;;;57.13;32.53;;;3.50;99.90;;;-141.84;95.19;18354.88;4997702;28;20238;-63
2022/12/05 05:46:39;;;;;;;56.73;33.53;;;3.50;99.90;;;-141.84;95.29;18334.56;4991511;28;20231;-63
2022/12/05 05:49:07;;;;;;;52.30;31.30;;;3.50;99.90;;;-141.84;95.19;18322.38;4990769;28;20285;-63
2022/12/05 05:51:35;;;;;;;51.77;31.93;;;3.50;99.90;;;-141.84;95.01;18336.59;4989119;28;20258;-63
2022/12/05 05:54:05;;;;;;;53.93;31.13;;;3.50;99.90;;;-141.84;94.97;18342.69;4990364;28;20223;-63
2022/12/05 05:56:33;;;;;;;51.10;29.37;;;3.50;99.90;;;-141.84;94.88;18344.72;4990481;28;20227;-63
2022/12/05 05:59:03;;;;;;;51.20;30.50;;;3.50;99.90;;;-141.84;95.03;18338.63;4999336;28;20305;-63
2022/12/05 06:01:32;;;;;;;53.07;33.30;;;3.50;99.90;;;-141.84;94.95;18352.84;5008767;28;20223;-63
2022/12/05 06:04:00;;;;;;;52.57;32.13;;;3.50;99.90;;;-141.84;95.07;18340.66;4994290;28;20255;-64
2022/12/05 06:06:28;;;;;;;57.87;31.93;;;3.50;99.90;;;-141.84;95.01;18322.38;4995088;28;20207;-62
2022/12/05 06:08:57;;;;;;;53.20;31.83;;;3.50;99.90;;;-141.84;95.02;18354.88;5010384;28;20297;-63
2022/12/05 06:11:28;;;;;;;55.80;32.37;;;3.50;99.90;;;-141.84;95.05;18340.66;5011851;28;20234;-63
2022/12/05 06:13:59;;;;;;;52.83;30.73;;;3.50;99.90;;;-141.84;94.93;18326.44;4997511;28;20234;-62
2022/12/05 06:16:28;;;;;;;55.10;31.40;;;3.40;99.90;;;-141.84;94.97;18322.38;5009174;28;20266;-62
2022/12/05 06:18:57;;;;;;;56.13;32.63;;;3.40;99.90;;;-141.84;95.13;18328.47;4989358;28;20220;-62
2022/12/05 06:21:26;;;;;;;60.30;33.17;;;3.40;99.90;;;-141.84;95.02;18318.31;4990420;28;20205;-63
2022/12/05 06:23:55;;;;;;;49.50;29.20;;;3.40;99.90;;;-141.84;95.04;18346.75;4993837;28;20227;-63
2022/12/05 06:26:23;;;;;;;59.23;33.40;;;3.40;99.90;;;-141.84;95.19;18324.41;4994428;28;20244;-65
2022/12/05 06:28:54;;;;;;;59.20;35.07;;;3.30;99.90;;;-141.84;95.29;18312.22;4994093;28;20254;-65
2022/12/05 06:31:25;;;;;;;59.50;34.77;;;3.40;99.90;;;-141.84;95.29;18314.25;4993962;28;20915;-64
2022/12/05 06:33:54;;;;;;;55.73;31.87;;;3.40;99.90;;;-141.84;95.58;18310.19;4993842;28;20305;-64
2022/12/05 06:36:22;;;;;;;56.30;34.27;;;3.40;99.90;;;-141.84;95.72;18320.34;4994181;28;20219;-64
2022/12/05 06:38:51;;;;;;;59.80;33.50;;;3.40;99.90;;;-141.84;95.80;18271.59;4992885;28;20305;-64
2022/12/05 06:41:20;;;;;;;55.83;33.17;;;3.40;99.90;;;-141.84;95.90;18275.66;4993394;28;20235;-64
2022/12/05 06:43:49;;;;;;;57.33;32.77;;;3.40;99.90;;;-141.84;95.90;18285.81;4993412;28;20234;-64
2022/12/05 06:46:18;;;;;;;57.27;33.17;;;3.40;99.90;;;-141.84;95.97;18285.81;4993612;28;20603;-64
2022/12/05 06:48:46;;;;;;;59.37;33.70;;;3.50;99.90;;;-141.84;96.00;18304.09;4993402;28;20582;-65
2022/12/05 06:51:16;;;;;;;55.57;32.33;;;3.40;99.90;;;-141.84;96.13;18249.25;5011674;28;20226;-64
2022/12/05 06:53:45;;;;;;;48.80;28.77;;;3.50;99.90;;;-141.84;96.15;18277.69;5012820;28;20237;-64
2022/12/05 06:56:19;;;;;;;61.77;33.60;;;3.50;99.90;;;-141.84;96.53;18310.19;5002628;28;20685;-65
2022/12/05 06:58:51;;;;;;;54.77;31.03;;;3.50;99.90;;;-141.84;96.42;18285.81;4992038;28;20233;-64
2022/12/05 07:01:39;;;;;;;57.47;32.13;;;3.50;99.90;;;-141.84;96.44;18283.78;4991842;28;20241;-64
2022/12/05 07:04:14;;;;;;;55.60;31.67;;;3.50;99.90;;;-141.84;96.51;18230.94;4993307;28;20184;-64
2022/12/05 07:06:44;;;;;;;52.87;30.97;;;3.50;99.90;;;-141.84;96.51;18249.25;5011825;28;20239;-63
2022/12/05 07:09:20;;;;;;;59.60;32.67;;;3.50;99.90;;;-141.84;96.80;18237.06;5010611;28;20287;-63
2022/12/05 07:11:49;;;;;;;55.27;31.57;;;3.50;99.90;;;-141.84;96.96;18237.06;5009586;28;20910;-63
2022/12/05 07:14:17;;;;;;;54.37;32.57;;;3.50;99.90;;;-141.84;97.14;18232.97;4997945;28;20237;-63
2022/12/05 07:17:07;;;;;;;58.27;35.00;;;3.50;99.90;;;-141.84;97.05;18216.72;5002593;28;20218;-65
2022/12/05 07:19:35;;;;;;;62.30;36.13;;;3.50;99.90;;;-141.84;96.96;18184.22;5007403;28;20241;-63
2022/12/05 07:22:04;;;;;;;58.97;34.13;;;3.60;99.90;;;-141.84;96.85;18161.88;4993004;28;20207;-64
2022/12/05 07:24:36;;;;;;;60.30;34.80;;;3.60;99.90;;;-141.84;97.18;18210.63;4993204;28;20191;-63
2022/12/05 07:27:05;;;;;;;61.70;36.43;;;3.60;99.90;;;-141.84;97.19;18163.91;4992840;28;20242;-64
2022/12/05 07:29:33;;;;;;;64.33;34.97;;;3.60;99.90;;;-141.84;96.99;18196.41;4992614;28;20921;-63
2022/12/05 07:32:01;;;;;;;63.87;37.17;;;3.60;99.90;;;-141.84;97.05;18180.16;4992831;28;20230;-63
2022/12/05 07:34:31;;;;;;;69.83;44.27;;;3.60;99.90;;;-141.84;96.96;18198.44;4992879;28;20310;-64
2022/12/05 07:37:00;;;;;;;72.60;44.30;;;3.70;99.90;;;-141.84;96.99;18200.47;4993032;28;20203;-64
2022/12/05 07:39:28;;;;;;;72.13;46.70;;;3.70;99.90;;;-141.84;96.82;18190.31;4992610;28;20230;-64
2022/12/05 07:41:57;;;;;;;76.43;45.00;;;3.70;99.90;;;-141.84;96.87;18206.56;4992326;28;20606;-63
2022/12/05 07:44:25;;;;;;;64.83;38.20;;;3.70;99.90;;;-141.84;96.76;18192.34;5003594;28;20230;-64
2022/12/05 07:46:53;;;;;;;62.53;36.07;;;3.80;99.90;;;-141.84;96.69;18216.72;5012266;28;20237;-64
2022/12/05 07:49:21;;;;;;;59.67;35.33;;;3.80;99.90;;;-141.84;96.65;18216.72;5011691;28;20242;-63
2022/12/05 07:51:51;;;;;;;56.47;33.07;;;3.80;99.90;;;-141.84;96.71;18222.81;5012438;28;20610;-63
2022/12/05 07:54:19;;;;;;;56.80;33.73;;;3.90;99.90;;;-141.84;96.43;18186.25;5011477;28;20261;-63
2022/12/05 07:56:48;;;;;;;57.43;34.13;;;3.90;99.90;;;-141.84;96.35;18208.59;5012019;28;20234;-64
2022/12/05 07:59:16;;;;;;;58.07;33.00;;;3.90;99.90;;;-141.84;96.26;18198.44;5011516;28;20235;-63
2022/12/05 08:01:44;;;;;;;60.27;34.37;;;3.90;99.90;;;-141.84;96.18;18194.38;5011576;28;20850;-63
2022/12/05 08:04:12;;;;;;;59.07;33.80;;;3.90;99.90;;;-141.84;96.03;18180.16;5011242;28;20210;-63
2022/12/05 08:06:43;;;;;;;61.53;33.27;;;3.90;99.90;;;-141.84;95.88;18210.63;5012057;28;20196;-63
2022/12/05 08:09:12;;;;;;;64.37;34.53;;;3.90;99.90;;;-141.84;95.75;18182.19;5011013;28;20237;-64
2022/12/05 08:11:41;;;;;;;53.43;30.97;;;3.90;99.90;;;-141.84;95.62;18161.88;5011566;28;20237;-63
2022/12/05 08:14:10;;;;;;;65.67;35.13;;;4.00;99.90;;;-141.84;95.02;18206.56;5001430;28;20242;-64
2022/12/05 08:16:38;;;;;;;58.70;35.23;;;4.00;99.90;;;-141.84;94.89;18232.97;4992016;28;20310;-63
2022/12/05 08:19:11;;;;;;;60.00;35.53;;;3.90;99.90;;;-141.84;94.95;18220.78;4993130;28;20208;-63
2022/12/05 08:21:40;;;;;;;56.37;33.67;;;4.00;99.90;;;-141.84;94.35;18216.72;5012273;28;20215;-63
2022/12/05 08:24:09;;;;;;;56.17;33.03;;;4.00;99.90;;;-141.84;94.24;18228.91;5011255;28;20227;-64
2022/12/05 08:26:39;;;;;;;49.93;28.60;;;4.00;99.90;;;-141.84;93.92;18239.09;5011665;28;20245;-65
2022/12/05 08:29:10;;;;;;;45.43;28.53;;;4.00;99.90;;;-141.84;94.08;18232.97;5011158;28;20237;-64
2022/12/05 08:31:42;;;;;;;51.90;30.20;;;4.00;99.90;;;-141.84;93.73;18218.75;5011404;28;20228;-63
2022/12/05 08:34:13;;;;;;;47.73;29.37;;;4.00;99.90;;;-141.84;93.67;18226.88;5011303;28;20194;-64
2022/12/05 08:36:41;;;;;;;48.60;28.37;;;4.00;99.90;;;-141.84;93.46;18285.81;5012019;28;20268;-63
2022/12/05 08:39:14;;;;;;;44.50;27.67;;;4.00;99.90;;;-141.84;93.14;18249.25;5010911;28;20214;-64
2022/12/05 08:41:45;;;;;;;41.33;25.77;;;4.00;99.90;;;-141.84;92.48;18275.66;4996663;28;20231;-64
2022/12/05 08:44:15;;;;;;;41.50;25.07;;;4.00;99.90;;;-141.84;91.45;18277.69;4991572;28;20239;-64
2022/12/05 08:46:46;;;;;;;42.83;24.60;;;4.00;99.90;;;-141.84;90.68;18310.19;4991674;28;20277;-64
2022/12/05 08:49:15;;;;;;;40.67;23.63;;;4.10;99.90;;;-141.84;90.35;18314.25;4991508;28;20289;-65
2022/12/05 08:51:44;;;;;;;37.93;24.43;;;4.10;99.90;;;-141.84;90.30;18306.13;4976748;28;20608;-64
2022/12/05 08:54:13;;;;;;;41.53;25.10;;;4.00;99.90;;;-141.84;90.35;18328.47;4976706;28;20718;-64
2022/12/05 08:56:41;;;;;;;38.77;25.20;;;4.00;99.90;;;-141.84;89.82;18320.34;5005543;28;20237;-64
2022/12/05 08:59:10;;;;;;;40.07;23.73;;;4.10;99.90;;;-141.84;89.36;18308.16;5011070;28;20229;-65
2022/12/05 09:01:39;;;;;;;42.77;24.20;;;4.00;99.90;;;-141.84;89.29;18340.66;5011064;28;20230;-64
2022/12/05 09:04:08;;;;;;;43.33;24.47;;;3.90;99.90;;;-141.84;89.46;18334.56;5011375;28;20202;-65
2022/12/05 09:06:38;;;;;;;44.50;25.47;;;3.90;99.90;;;-141.84;89.79;18334.56;5011274;28;20582;-63
2022/12/05 09:09:10;;;;;;;41.03;26.57;;;3.80;99.90;;;-141.84;90.32;18310.19;5010946;28;20233;-65
2022/12/05 09:11:45;;;;;;;38.03;23.97;;;3.80;99.90;;;-141.84;89.97;18324.41;5011014;28;20233;-64
2022/12/05 09:14:15;;;;;;;36.20;22.20;;;3.80;99.90;;;-141.84;89.45;18363.00;4997472;28;20768;-64
2022/12/05 09:16:45;;;;;;;36.03;22.57;;;3.80;99.90;;;-141.84;89.40;18336.59;4991246;28;20219;-64
2022/12/05 09:19:16;;;;;;;35.20;21.27;;;3.80;99.90;;;-141.84;89.24;18350.81;4993548;28;20186;-64
2022/12/05 09:21:45;;;;;;;37.70;20.97;;;3.70;99.90;;;-141.84;89.27;18320.34;5011040;28;20265;-65
2022/12/05 09:24:14;;;;;;;34.03;21.67;;;3.70;99.90;;;-141.84;88.79;18346.75;5010530;28;20233;-64
2022/12/05 09:26:43;;;;;;;32.53;19.57;;;3.70;99.90;;;-141.84;88.42;18360.97;5010561;28;20700;-64
2022/12/05 09:29:14;;;;;;;32.70;20.60;;;3.70;99.90;;;-141.84;88.61;18342.69;5010390;28;20242;-64
2022/12/05 09:31:47;;;;;;;31.70;19.90;;;3.70;99.90;;;-141.84;88.37;18377.22;5010869;28;20562;-65
2022/12/05 09:34:16;;;;;;;35.73;21.03;;;3.60;99.90;;;-141.84;88.42;18373.16;5011105;28;20243;-64
2022/12/05 09:36:50;;;;;;;28.90;18.90;;;3.60;99.90;;;-141.84;87.05;18381.28;5001074;28;20211;-64
2022/12/05 09:39:19;;;;;;;28.43;18.23;;;3.70;99.90;;;-141.84;85.82;18393.47;5014295;28;20241;-63
2022/12/05 09:42:29;;;;;;;27.60;18.53;;;3.80;99.90;;;-141.84;86.16;18407.69;4999426;28;20230;-67
2022/12/05 09:45:13;;;;;;;25.03;17.53;;;3.80;99.90;;;-141.84;86.64;18387.38;4994887;28;20706;-65
2022/12/05 09:47:55;;;;;;;25.90;17.83;;;3.80;99.90;;;-141.84;87.15;18369.09;4994941;28;20245;-64
2022/12/05 09:50:27;;;;;;;27.03;16.83;;;3.70;99.90;;;-141.84;87.65;18369.09;4994793;28;20215;-66
2022/12/05 09:53:27;;;;;;;25.77;16.90;;;3.80;99.90;;;-141.84;87.85;18367.06;5002572;28;20313;-64
2022/12/05 09:56:03;;;;;;;25.70;16.77;;;3.70;99.90;;;-141.84;88.00;18358.94;4996316;28;20771;-64
2022/12/05 09:58:42;;;;;;;23.37;16.10;;;3.80;99.90;;;-141.84;88.11;18399.56;5014442;28;20237;-65
2022/12/05 10:01:31;;;;;;;23.87;16.07;;;3.80;99.90;;;-141.84;87.11;18389.41;5014110;28;20217;-65
2022/12/05 10:04:22;;;;;;;24.50;15.93;;;3.70;99.90;;;-141.84;86.88;18407.69;5014281;28;20190;-65
2022/12/05 10:07:06;;;;;;;21.83;15.60;;;3.80;99.90;;;-141.84;87.17;18393.47;5014592;28;20585;-65
2022/12/05 10:09:57;;;;;;;24.23;16.27;;;3.70;99.90;;;-141.84;86.34;18381.28;4994729;28;20200;-66
2022/12/05 10:12:51;;;;;;;22.93;15.20;;;3.80;99.90;;;-141.84;86.49;18425.97;4994874;28;20231;-65
2022/12/05 10:15:31;;;;;;;23.07;15.53;;;3.80;99.90;;;-141.84;86.71;18411.75;4994069;28;20234;-65
2022/12/05 10:18:10;;;;;;;23.70;16.70;;;3.80;99.90;;;-141.84;87.10;18383.31;5009367;28;20225;-65
2022/12/05 10:20:51;;;;;;;23.43;16.00;;;3.80;99.90;;;-141.84;87.29;18393.47;5014176;28;20289;-65
2022/12/05 10:23:26;;;;;;;24.97;16.17;;;3.80;99.90;;;-141.84;85.38;18399.56;5013771;28;20226;-64
2022/12/05 10:26:16;;;;;;;19.50;15.00;;;3.80;99.90;;;-141.84;84.98;18444.28;5013885;28;20320;-65
2022/12/05 10:28:56;;;;;;;20.30;15.20;;;3.80;99.90;;;-141.84;85.23;18417.84;5013713;28;20233;-65
2022/12/05 10:31:30;;;;;;;22.63;15.67;;;3.80;99.90;;;-141.84;85.50;18395.50;5012673;28;20697;-64